Keene, Kentucky
Current Conditions -  °F | °C
As of 2:54 AM on Sunday 26 Oct 2014 (Local Time) from KLEX Reporting Station
Clear Clear  
Wind Chill: 60°   Ceiling: Unl
Heat Index: 60°   Visibility: 9mi
Dew Point: 53°   Wind: 6mph
Humidity: 78%   Direction: 290°WNW
Pressure: 29.97"   Gusts: NA
Location:  37.94°N, 84.64°W
Report Text: KLEX 260654Z 29005KT 9SM CLR 16/12 A2997 RMK AO2 SLP144 T01560117 $
Loading
Personal Weather Stations






























Interactive Weather Map
Tropical Storm Tracking
New forecast layout! Learn more

10-Day Weather Forecast

Advertisements
Track Severe Weather on mobile